Time;durP1;ratioP1;P1;durP2;ratioP2;P2;SDS_P1;SDS_P2;PMS_P1;PMS_P2;Temp;Humidity;BMP_temperature;BMP_pressure;BME280_temperature;BME280_humidity;BME280_pressure;Samples;Min_cycle;Max_cycle;Signal;HPM_P1;HPM_P2
2023/04/12 00:00:22;;;;;;;;;;;;;;;;;;5049801;28;4607;-68
2023/04/12 00:02:53;;;;;;;;;;;;;;;;;;5053479;28;4664;-68
2023/04/12 00:05:26;;;;;;;;;;;;;;;;;;5051991;28;4460;-68
2023/04/12 00:07:54;;;;;;;;;;;;;;;;;;5050633;28;4475;-67
2023/04/12 00:10:20;;;;;;;;;;;;;;;;;;5053527;28;2012;-68
2023/04/12 00:12:45;;;;;;;;;;;;;;;;;;5053997;28;4545;-68
2023/04/12 00:15:11;;;;;;;;;;;;;;;;;;5046253;28;4514;-68
2023/04/12 00:17:36;;;;;;;;;;;;;;;;;;5053269;28;4965;-68
2023/04/12 00:20:04;;;;;;;;;;;;;;;;;;5048889;28;4860;-68
2023/04/12 00:22:29;;;;;;;;;;;;;;;;;;5054210;28;4811;-68
2023/04/12 00:24:55;;;;;;;;;;;;;;;;;;5053165;28;4647;-68
2023/04/12 00:27:20;;;;;;;;;;;;;;;;;;5054887;28;4474;-67
2023/04/12 00:29:45;;;;;;;;;;;;;;;;;;5058783;28;4617;-67
2023/04/12 00:32:11;;;;;;;;;;;;;;;;;;5055680;28;4476;-67
2023/04/12 00:34:36;;;;;;;;;;;;;;;;;;5050098;28;4982;-67
2023/04/12 00:37:01;;;;;;;;;;;;;;;;;;5061162;28;1579;-67
2023/04/12 00:39:26;;;;;;;;;;;;;;;;;;5055292;28;4594;-67
2023/04/12 00:41:52;;;;;;;;;;;;;;;;;;5051677;28;4471;-67
2023/04/12 00:44:17;;;;;;;;;;;;;;;;;;5051089;28;4537;-67
2023/04/12 00:46:43;;;;;;;;;;;;;;;;;;5050012;28;5081;-67
2023/04/12 00:49:08;;;;;;;;;;;;;;;;;;5054370;28;1914;-68
2023/04/12 00:51:33;;;;;;;;;;;;;;;;;;5087881;28;5056;-68
2023/04/12 00:53:58;;;;;;;;;;;;;;;;;;5049784;28;4462;-68
2023/04/12 00:56:26;;;;;;;;;;;;;;;;;;5059153;28;4433;-68
2023/04/12 00:58:52;;;;;;;;;;;;;;;;;;5049187;28;4571;-67
2023/04/12 01:01:18;;;;;;;;;;;;;;;;;;5049396;28;3251;-67
2023/04/12 01:03:43;;;;;;;;;;;;;;;;;;5048632;28;4401;-67
2023/04/12 01:06:28;;;;;;;;;;;;;;;;;;5055225;28;4719;-67
2023/04/12 01:09:00;;;;;;;;;;;;;;;;;;5036009;28;4482;-67
2023/04/12 01:11:28;;;;;;;;;;;;;;;;;;5046598;28;4673;-67
2023/04/12 01:14:03;;;;;;;;;;;;;;;;;;5049184;28;5046;-67
2023/04/12 01:16:34;;;;;;;;;;;;;;;;;;5051094;28;4650;-67
2023/04/12 01:19:02;;;;;;;;;;;;;;;;;;5051204;28;2176;-67
2023/04/12 01:21:48;;;;;;;;;;;;;;;;;;5049477;28;4434;-67
2023/04/12 01:24:28;;;;;;;;;;;;;;;;;;5026906;28;4767;-67
2023/04/12 01:26:53;;;;;;;;;;;;;;;;;;5080881;28;5114;-67
2023/04/12 01:29:19;;;;;;;;;;;;;;;;;;5078978;28;5105;-67
2023/04/12 01:31:56;;;;;;;;;;;;;;;;;;5057260;28;4807;-67
2023/04/12 01:34:22;;;;;;;;;;;;;;;;;;5050547;28;2357;-67
2023/04/12 01:36:47;;;;;;;;;;;;;;;;;;5056913;28;4563;-67
2023/04/12 01:39:13;;;;;;;;;;;;;;;;;;5047264;28;4788;-66
2023/04/12 01:41:39;;;;;;;;;;;;;;;;;;5084363;28;5070;-67
2023/04/12 01:44:05;;;;;;;;;;;;;;;;;;5087348;28;4645;-68
2023/04/12 01:46:31;;;;;;;;;;;;;;;;;;5044790;28;5027;-69
2023/04/12 01:48:56;;;;;;;;;;;;;;;;;;5054073;28;3117;-68
2023/04/12 01:51:28;;;;;;;;;;;;;;;;;;5057337;28;4961;-68
2023/04/12 01:53:56;;;;;;;;;;;;;;;;;;5077252;28;4674;-68
2023/04/12 01:56:21;;;;;;;;;;;;;;;;;;5050258;28;4809;-68
2023/04/12 01:58:47;;;;;;;;;;;;;;;;;;5053203;28;4491;-68
2023/04/12 02:01:14;;;;;;;;;;;;;;;;;;5044770;28;3180;-68
2023/04/12 02:03:42;;;;;;;;;;;;;;;;;;5083883;28;4609;-68
2023/04/12 02:06:07;;;;;;;;;;;;;;;;;;5050253;28;4767;-67
2023/04/12 02:08:33;;;;;;;;;;;;;;;;;;5055003;28;5071;-67
2023/04/12 02:10:58;;;;;;;;;;;;;;;;;;5052231;28;4598;-67
2023/04/12 02:13:24;;;;;;;;;;;;;;;;;;5050006;28;1439;-67
2023/04/12 02:15:49;;;;;;;;;;;;;;;;;;5054348;28;5010;-67
2023/04/12 02:18:16;;;;;;;;;;;;;;;;;;5040793;28;4519;-68
2023/04/12 02:20:42;;;;;;;;;;;;;;;;;;5049648;28;4662;-67
2023/04/12 02:23:07;;;;;;;;;;;;;;;;;;5051841;28;4556;-67
2023/04/12 02:25:34;;;;;;;;;;;;;;;;;;5052141;28;4802;-67
2023/04/12 02:28:00;;;;;;;;;;;;;;;;;;5048771;28;3071;-67
2023/04/12 02:30:25;;;;;;;;;;;;;;;;;;5055630;28;4603;-67
2023/04/12 02:32:52;;;;;;;;;;;;;;;;;;5050047;28;4460;-68
2023/04/12 02:35:17;;;;;;;;;;;;;;;;;;5058551;28;4595;-68
2023/04/12 02:37:43;;;;;;;;;;;;;;;;;;5049093;28;4465;-69
2023/04/12 02:40:09;;;;;;;;;;;;;;;;;;5054927;28;1174;-68
2023/04/12 02:42:35;;;;;;;;;;;;;;;;;;5049606;28;4444;-66
2023/04/12 02:45:00;;;;;;;;;;;;;;;;;;5060594;28;4967;-69
2023/04/12 02:47:27;;;;;;;;;;;;;;;;;;5060832;28;4616;-68
2023/04/12 02:49:53;;;;;;;;;;;;;;;;;;5060251;28;5043;-68
2023/04/12 02:52:18;;;;;;;;;;;;;;;;;;5058511;28;1124;-70
2023/04/12 02:54:43;;;;;;;;;;;;;;;;;;5057138;28;4697;-69
2023/04/12 02:57:10;;;;;;;;;;;;;;;;;;5053945;28;4466;-68
2023/04/12 02:59:35;;;;;;;;;;;;;;;;;;5062888;28;5889;-67
2023/04/12 03:02:00;;;;;;;;;;;;;;;;;;5053744;28;5088;-68
2023/04/12 03:04:29;;;;;;;;;;;;;;;;;;5055563;28;4965;-68
2023/04/12 03:06:55;;;;;;;;;;;;;;;;;;5057819;28;2108;-69
2023/04/12 03:09:20;;;;;;;;;;;;;;;;;;5058114;28;4512;-68
2023/04/12 03:11:46;;;;;;;;;;;;;;;;;;5058251;28;4540;-69
2023/04/12 03:14:11;;;;;;;;;;;;;;;;;;5051333;28;4613;-67
2023/04/12 03:16:36;;;;;;;;;;;;;;;;;;5056948;28;5556;-67
2023/04/12 03:19:02;;;;;;;;;;;;;;;;;;5049080;28;1081;-68
2023/04/12 03:21:27;;;;;;;;;;;;;;;;;;5049624;28;4952;-68
2023/04/12 03:23:52;;;;;;;;;;;;;;;;;;5041237;28;4674;-69
2023/04/12 03:26:19;;;;;;;;;;;;;;;;;;5049811;28;4876;-68
2023/04/12 03:28:44;;;;;;;;;;;;;;;;;;5061698;28;4803;-67
2023/04/12 03:31:11;;;;;;;;;;;;;;;;;;5046005;28;3259;-67
2023/04/12 03:33:36;;;;;;;;;;;;;;;;;;5061481;28;4400;-67
2023/04/12 03:36:02;;;;;;;;;;;;;;;;;;5051839;28;4647;-68
2023/04/12 03:38:27;;;;;;;;;;;;;;;;;;5044598;28;4484;-67
2023/04/12 03:40:53;;;;;;;;;;;;;;;;;;5051076;28;4486;-68
2023/04/12 03:43:18;;;;;;;;;;;;;;;;;;5057962;28;1531;-66
2023/04/12 03:45:43;;;;;;;;;;;;;;;;;;5059359;28;4766;-66
2023/04/12 03:48:10;;;;;;;;;;;;;;;;;;5055879;28;5209;-65
2023/04/12 03:50:42;;;;;;;;;;;;;;;;;;5067083;28;4492;-67
2023/04/12 03:53:08;;;;;;;;;;;;;;;;;;5049717;28;5030;-68
2023/04/12 03:55:33;;;;;;;;;;;;;;;;;;5051223;28;4524;-66
2023/04/12 03:57:58;;;;;;;;;;;;;;;;;;5057432;28;3506;-66
2023/04/12 04:00:24;;;;;;;;;;;;;;;;;;5055558;28;4532;-67
2023/04/12 04:02:51;;;;;;;;;;;;;;;;;;5047621;28;5056;-68
2023/04/12 04:05:17;;;;;;;;;;;;;;;;;;5053023;28;4665;-67
2023/04/12 04:07:42;;;;;;;;;;;;;;;;;;5051699;28;4442;-68
2023/04/12 04:10:07;;;;;;;;;;;;;;;;;;5053677;28;3141;-68
2023/04/12 04:12:33;;;;;;;;;;;;;;;;;;5058847;28;4557;-67
2023/04/12 04:14:58;;;;;;;;;;;;;;;;;;5041048;28;4489;-67
2023/04/12 04:17:23;;;;;;;;;;;;;;;;;;5054323;28;5495;-66
2023/04/12 04:19:49;;;;;;;;;;;;;;;;;;5045249;28;4476;-70
2023/04/12 04:22:14;;;;;;;;;;;;;;;;;;5051123;28;1077;-67
2023/04/12 04:24:39;;;;;;;;;;;;;;;;;;5045560;28;4539;-67
2023/04/12 04:27:05;;;;;;;;;;;;;;;;;;5048703;28;4683;-67
2023/04/12 04:29:30;;;;;;;;;;;;;;;;;;5055809;28;5032;-70
2023/04/12 04:31:56;;;;;;;;;;;;;;;;;;5053677;28;4969;-68
2023/04/12 04:34:22;;;;;;;;;;;;;;;;;;5045977;28;3283;-67
2023/04/12 04:36:47;;;;;;;;;;;;;;;;;;5060809;28;4476;-69
2023/04/12 04:39:13;;;;;;;;;;;;;;;;;;5059992;28;4535;-66
2023/04/12 04:41:38;;;;;;;;;;;;;;;;;;5057353;28;4650;-67
2023/04/12 04:44:08;;;;;;;;;;;;;;;;;;5062996;28;4727;-67
2023/04/12 04:46:35;;;;;;;;;;;;;;;;;;5060957;28;4441;-69
2023/04/12 04:49:01;;;;;;;;;;;;;;;;;;5062139;28;3212;-70
2023/04/12 04:51:26;;;;;;;;;;;;;;;;;;5061448;28;4403;-69
2023/04/12 04:53:51;;;;;;;;;;;;;;;;;;5047036;28;4474;-67
2023/04/12 04:56:16;;;;;;;;;;;;;;;;;;5048005;28;4656;-68
2023/04/12 04:58:42;;;;;;;;;;;;;;;;;;5049902;28;5022;-67
2023/04/12 05:01:07;;;;;;;;;;;;;;;;;;5041134;28;3393;-69
2023/04/12 05:03:33;;;;;;;;;;;;;;;;;;5045972;28;4431;-70
2023/04/12 05:05:59;;;;;;;;;;;;;;;;;;5057032;28;4430;-67
2023/04/12 05:08:24;;;;;;;;;;;;;;;;;;5054630;28;4547;-68
2023/04/12 05:10:53;;;;;;;;;;;;;;;;;;5054712;28;4914;-70
2023/04/12 05:13:18;;;;;;;;;;;;;;;;;;5056057;28;1598;-66
2023/04/12 05:15:43;;;;;;;;;;;;;;;;;;5054456;28;4437;-68
2023/04/12 05:18:09;;;;;;;;;;;;;;;;;;5048841;28;4591;-68
2023/04/12 05:20:37;;;;;;;;;;;;;;;;;;5052452;28;4449;-67
2023/04/12 05:23:02;;;;;;;;;;;;;;;;;;5050048;28;4468;-66
2023/04/12 05:25:27;;;;;;;;;;;;;;;;;;5050425;28;4606;-67
2023/04/12 05:27:53;;;;;;;;;;;;;;;;;;5061577;28;1107;-67
2023/04/12 05:30:18;;;;;;;;;;;;;;;;;;5055374;28;5281;-68
2023/04/12 05:32:43;;;;;;;;;;;;;;;;;;5051369;28;4526;-71
2023/04/12 05:35:08;;;;;;;;;;;;;;;;;;5055359;28;4589;-66
2023/04/12 05:37:34;;;;;;;;;;;;;;;;;;5052436;28;4537;-67
2023/04/12 05:39:59;;;;;;;;;;;;;;;;;;5054915;28;1111;-68
2023/04/12 05:42:24;;;;;;;;;;;;;;;;;;5056098;28;4649;-68
2023/04/12 05:44:50;;;;;;;;;;;;;;;;;;5049407;28;4904;-69
2023/04/12 05:47:15;;;;;;;;;;;;;;;;;;5052736;28;4879;-67
2023/04/12 05:49:40;;;;;;;;;;;;;;;;;;5054686;28;4939;-68
2023/04/12 05:52:06;;;;;;;;;;;;;;;;;;5057811;28;3385;-69
2023/04/12 05:54:31;;;;;;;;;;;;;;;;;;5049077;28;4613;-65
2023/04/12 05:56:56;;;;;;;;;;;;;;;;;;5047031;28;4486;-65
2023/04/12 05:59:21;;;;;;;;;;;;;;;;;;5052068;28;4773;-66
2023/04/12 06:01:47;;;;;;;;;;;;;;;;;;5049481;28;5154;-67
2023/04/12 06:04:13;;;;;;;;;;;;;;;;;;5053401;28;3034;-65
2023/04/12 06:06:38;;;;;;;;;;;;;;;;;;5047283;28;4444;-69
2023/04/12 06:09:04;;;;;;;;;;;;;;;;;;5045000;28;5088;-65
2023/04/12 06:11:30;;;;;;;;;;;;;;;;;;5044208;28;4747;-65
2023/04/12 06:13:56;;;;;;;;;;;;;;;;;;5042982;28;4661;-66
2023/04/12 06:16:21;;;;;;;;;;;;;;;;;;5052799;28;3250;-65
2023/04/12 06:18:46;;;;;;;;;;;;;;;;;;5045864;28;4538;-64
2023/04/12 06:21:12;;;;;;;;;;;;;;;;;;5040680;28;4692;-65
2023/04/12 06:23:37;;;;;;;;;;;;;;;;;;5043620;28;4692;-67
2023/04/12 06:26:02;;;;;;;;;;;;;;;;;;5049299;28;5009;-67
2023/04/12 06:28:27;;;;;;;;;;;;;;;;;;5047987;28;4980;-67
2023/04/12 06:30:53;;;;;;;;;;;;;;;;;;5052494;28;3420;-65
2023/04/12 06:33:21;;;;;;;;;;;;;;;;;;5047595;28;4502;-68
2023/04/12 06:35:47;;;;;;;;;;;;;;;;;;5047929;28;4679;-65
2023/04/12 06:38:12;;;;;;;;;;;;;;;;;;5044841;28;4644;-66
2023/04/12 06:40:37;;;;;;;;;;;;;;;;;;5048396;28;4479;-66
2023/04/12 06:43:03;;;;;;;;;;;;;;;;;;5046354;28;3298;-65
2023/04/12 06:45:28;;;;;;;;;;;;;;;;;;5049742;28;4681;-63
2023/04/12 06:47:55;;;;;;;;;;;;;;;;;;5036322;28;4660;-65
2023/04/12 06:50:21;;;;;;;;;;;;;;;;;;5045429;28;5482;-66
2023/04/12 06:52:47;;;;;;;;;;;;;;;;;;5049848;28;4578;-69
2023/04/12 06:55:12;;;;;;;;;;;;;;;;;;5038888;28;3529;-67
2023/04/12 06:57:38;;;;;;;;;;;;;;;;;;5043018;28;5002;-66
2023/04/12 07:00:03;;;;;;;;;;;;;;;;;;5045145;28;4678;-67
2023/04/12 07:02:28;;;;;;;;;;;;;;;;;;5041745;28;5142;-66
2023/04/12 07:04:54;;;;;;;;;;;;;;;;;;5044129;28;5089;-67
2023/04/12 07:07:22;;;;;;;;;;;;;;;;;;5040583;28;3258;-66
2023/04/12 07:09:47;;;;;;;;;;;;;;;;;;5040531;28;4966;-67
2023/04/12 07:12:12;;;;;;;;;;;;;;;;;;5039530;28;4603;-66
2023/04/12 07:14:38;;;;;;;;;;;;;;;;;;5038970;28;4481;-67
2023/04/12 07:17:03;;;;;;;;;;;;;;;;;;5043847;28;4488;-67
2023/04/12 07:19:30;;;;;;;;;;;;;;;;;;5038211;28;4738;-66
2023/04/12 07:21:55;;;;;;;;;;;;;;;;;;5045372;28;1586;-67
2023/04/12 07:24:20;;;;;;;;;;;;;;;;;;5046759;28;5068;-66
2023/04/12 07:26:45;;;;;;;;;;;;;;;;;;5045010;28;4641;-66
2023/04/12 07:29:11;;;;;;;;;;;;;;;;;;5046066;28;4476;-66
2023/04/12 07:31:36;;;;;;;;;;;;;;;;;;5058245;28;5035;-65
2023/04/12 07:34:01;;;;;;;;;;;;;;;;;;5050501;28;1403;-69
2023/04/12 07:36:27;;;;;;;;;;;;;;;;;;5047917;28;5075;-66
2023/04/12 07:38:54;;;;;;;;;;;;;;;;;;5049887;28;5827;-65
2023/04/12 07:41:20;;;;;;;;;;;;;;;;;;5046369;28;5104;-66
2023/04/12 07:43:45;;;;;;;;;;;;;;;;;;5047134;28;4482;-67
2023/04/12 07:46:11;;;;;;;;;;;;;;;;;;5046963;28;1523;-68
2023/04/12 07:48:36;;;;;;;;;;;;;;;;;;5048347;28;4827;-67
2023/04/12 07:51:01;;;;;;;;;;;;;;;;;;5047430;28;4565;-68
2023/04/12 07:53:27;;;;;;;;;;;;;;;;;;5047596;28;5042;-68
2023/04/12 07:55:53;;;;;;;;;;;;;;;;;;5045507;28;4437;-67
2023/04/12 07:58:18;;;;;;;;;;;;;;;;;;5050487;28;1091;-67
2023/04/12 08:00:44;;;;;;;;;;;;;;;;;;5048567;28;4933;-68
2023/04/12 08:03:10;;;;;;;;;;;;;;;;;;5045376;28;4477;-67
2023/04/12 08:05:35;;;;;;;;;;;;;;;;;;5048535;28;4455;-67
2023/04/12 08:08:01;;;;;;;;;;;;;;;;;;5049620;28;5205;-70
2023/04/12 08:10:27;;;;;;;;;;;;;;;;;;5047573;28;4770;-68
2023/04/12 08:12:52;;;;;;;;;;;;;;;;;;5047770;28;1796;-67
2023/04/12 08:15:17;;;;;;;;;;;;;;;;;;5045918;28;4467;-66
2023/04/12 08:17:43;;;;;;;;;;;;;;;;;;5042817;28;5030;-66
2023/04/12 08:20:08;;;;;;;;;;;;;;;;;;5043620;28;4469;-66
2023/04/12 08:22:34;;;;;;;;;;;;;;;;;;5046468;28;4969;-65
2023/04/12 08:25:00;;;;;;;;;;;;;;;;;;5047285;28;4519;-68
2023/04/12 08:27:25;;;;;;;;;;;;;;;;;;5045305;28;5089;-67
2023/04/12 08:29:51;;;;;;;;;;;;;;;;;;5046015;28;4534;-66
2023/04/12 08:32:16;;;;;;;;;;;;;;;;;;5042400;28;5021;-67
2023/04/12 08:34:41;;;;;;;;;;;;;;;;;;5058351;28;5136;-67
2023/04/12 08:37:07;;;;;;;;;;;;;;;;;;5044579;28;3185;-66
2023/04/12 08:39:32;;;;;;;;;;;;;;;;;;5046452;28;5051;-66
2023/04/12 08:41:57;;;;;;;;;;;;;;;;;;5045832;28;4434;-67
2023/04/12 08:44:38;;;;;;;;;;;;;;;;;;5027975;28;4495;-68
2023/04/12 08:47:03;;;;;;;;;;;;;;;;;;5047113;28;4820;-66
2023/04/12 08:49:32;;;;;;;;;;;;;;;;;;5041802;28;5246;-66
2023/04/12 08:52:02;;;;;;;;;;;;;;;;;;5045262;28;3487;-66
2023/04/12 08:54:27;;;;;;;;;;;;;;;;;;5044472;28;5064;-68
2023/04/12 08:56:56;;;;;;;;;;;;;;;;;;5044104;28;4494;-67
2023/04/12 08:59:22;;;;;;;;;;;;;;;;;;5047390;28;4614;-67
2023/04/12 09:01:47;;;;;;;;;;;;;;;;;;5046287;28;4480;-66
2023/04/12 09:04:12;;;;;;;;;;;;;;;;;;5047315;28;1423;-67
2023/04/12 09:06:37;;;;;;;;;;;;;;;;;;5044661;28;4438;-67
2023/04/12 09:09:05;;;;;;;;;;;;;;;;;;5039220;28;4461;-66
2023/04/12 09:11:31;;;;;;;;;;;;;;;;;;5077326;28;4651;-66
2023/04/12 09:13:56;;;;;;;;;;;;;;;;;;5076480;28;4679;-67
2023/04/12 09:16:40;;;;;;;;;;;;;;;;;;5045096;28;1420;-65
2023/04/12 09:19:06;;;;;;;;;;;;;;;;;;5044670;28;5600;-68
2023/04/12 09:21:33;;;;;;;;;;;;;;;;;;5047353;28;4548;-69
2023/04/12 09:24:08;;;;;;;;;;;;;;;;;;5049567;28;5173;-68
2023/04/12 09:26:34;;;;;;;;;;;;;;;;;;5044247;28;4986;-68
2023/04/12 09:28:59;;;;;;;;;;;;;;;;;;5046084;28;5074;-68
2023/04/12 09:31:25;;;;;;;;;;;;;;;;;;5041466;28;4880;-64
2023/04/12 09:33:51;;;;;;;;;;;;;;;;;;5042967;28;1499;-66
2023/04/12 09:36:17;;;;;;;;;;;;;;;;;;5076767;28;4681;-66
2023/04/12 09:38:59;;;;;;;;;;;;;;;;;;5040601;28;4576;-68
2023/04/12 09:41:26;;;;;;;;;;;;;;;;;;5040399;28;5176;-66
2023/04/12 09:43:51;;;;;;;;;;;;;;;;;;5043057;28;4706;-68
2023/04/12 09:46:16;;;;;;;;;;;;;;;;;;5045581;28;3203;-67
2023/04/12 09:48:48;;;;;;;;;;;;;;;;;;5042052;28;4641;-66
2023/04/12 09:51:22;;;;;;;;;;;;;;;;;;5039828;28;4530;-66
2023/04/12 09:53:47;;;;;;;;;;;;;;;;;;5043154;28;4554;-66
2023/04/12 09:56:12;;;;;;;;;;;;;;;;;;5045001;28;4467;-66
2023/04/12 09:58:38;;;;;;;;;;;;;;;;;;5074771;28;5236;-65
2023/04/12 10:01:03;;;;;;;;;;;;;;;;;;5044389;28;1320;-66
2023/04/12 10:03:28;;;;;;;;;;;;;;;;;;5044943;28;4473;-67
2023/04/12 10:05:54;;;;;;;;;;;;;;;;;;5042482;28;4633;-65
2023/04/12 10:08:20;;;;;;;;;;;;;;;;;;5042788;28;4478;-65
2023/04/12 10:10:45;;;;;;;;;;;;;;;;;;5044044;28;5255;-68
2023/04/12 10:13:11;;;;;;;;;;;;;;;;;;5044159;28;1514;-66
2023/04/12 10:15:36;;;;;;;;;;;;;;;;;;5042258;28;5179;-65
2023/04/12 10:18:01;;;;;;;;;;;;;;;;;;5077534;28;5426;-65
2023/04/12 10:20:26;;;;;;;;;;;;;;;;;;5043940;28;4462;-64
2023/04/12 10:22:52;;;;;;;;;;;;;;;;;;5047418;28;4649;-66
2023/04/12 10:25:24;;;;;;;;;;;;;;;;;;5047471;28;4618;-66
2023/04/12 10:27:49;;;;;;;;;;;;;;;;;;5040408;28;4990;-65
2023/04/12 10:30:22;;;;;;;;;;;;;;;;;;5047049;28;4683;-65
2023/04/12 10:33:07;;;;;;;;;;;;;;;;;;5044075;28;4465;-64
2023/04/12 10:36:02;;;;;;;;;;;;;;;;;;5041940;28;4662;-63
2023/04/12 10:38:31;;;;;;;;;;;;;;;;;;5033430;28;4531;-65
2023/04/12 10:41:15;;;;;;;;;;;;;;;;;;5037043;28;4871;-65
2023/04/12 10:43:41;;;;;;;;;;;;;;;;;;5072652;28;4514;-65
2023/04/12 10:46:06;;;;;;;;;;;;;;;;;;5040786;28;3264;-65
2023/04/12 10:48:50;;;;;;;;;;;;;;;;;;5038218;28;4656;-63
2023/04/12 10:51:23;;;;;;;;;;;;;;;;;;5075741;28;5424;-64
2023/04/12 10:53:49;;;;;;;;;;;;;;;;;;5046936;28;4530;-68
2023/04/12 10:56:30;;;;;;;;;;;;;;;;;;5045873;28;4451;-65
2023/04/12 10:58:59;;;;;;;;;;;;;;;;;;5045187;28;4662;-66
2023/04/12 11:01:24;;;;;;;;;;;;;;;;;;5051042;28;3440;-65
2023/04/12 11:04:05;;;;;;;;;;;;;;;;;;5043745;28;4732;-74
2023/04/12 11:06:39;;;;;;;;;;;;;;;;;;5039640;28;5024;-74
2023/04/12 11:09:05;;;;;;;;;;;;;;;;;;5052138;28;5094;-66
2023/04/12 11:11:30;;;;;;;;;;;;;;;;;;5045061;28;4475;-65
2023/04/12 11:13:56;;;;;;;;;;;;;;;;;;5085559;28;4578;-63
2023/04/12 11:16:21;;;;;;;;;;;;;;;;;;5076326;28;3267;-69
2023/04/12 11:18:47;;;;;;;;;;;;;;;;;;5060309;28;4510;-68
2023/04/12 11:21:13;;;;;;;;;;;;;;;;;;5053937;28;5025;-68
2023/04/12 11:23:38;;;;;;;;;;;;;;;;;;5047220;28;4639;-68
2023/04/12 11:26:04;;;;;;;;;;;;;;;;;;5050437;28;4514;-69
2023/04/12 11:28:29;;;;;;;;;;;;;;;;;;5054590;28;4466;-67
2023/04/12 11:30:54;;;;;;;;;;;;;;;;;;5056541;28;1979;-69
2023/04/12 11:33:30;;;;;;;;;;;;;;;;;;5058884;28;5054;-69
2023/04/12 11:35:55;;;;;;;;;;;;;;;;;;5062490;28;4730;-61
2023/04/12 11:38:21;;;;;;;;;;;;;;;;;;5048282;28;4587;-61
2023/04/12 11:40:47;;;;;;;;;;;;;;;;;;5046315;28;5037;-62
2023/04/12 11:43:17;;;;;;;;;;;;;;;;;;5050746;28;3310;-64
2023/04/12 11:45:43;;;;;;;;;;;;;;;;;;5078488;28;4870;-68
2023/04/12 11:48:08;;;;;;;;;;;;;;;;;;5048350;28;4446;-65
2023/04/12 11:50:36;;;;;;;;;;;;;;;;;;5049575;28;4485;-63
2023/04/12 11:53:14;;;;;;;;;;;;;;;;;;5046080;28;4655;-64
2023/04/12 11:55:40;;;;;;;;;;;;;;;;;;5042498;28;4492;-64
2023/04/12 11:58:05;;;;;;;;;;;;;;;;;;5053244;28;3735;-64
2023/04/12 12:00:31;;;;;;;;;;;;;;;;;;5049754;28;5058;-68
2023/04/12 12:02:56;;;;;;;;;;;;;;;;;;5055214;28;4588;-64
2023/04/12 12:05:22;;;;;;;;;;;;;;;;;;5051786;28;4421;-64
2023/04/12 12:07:47;;;;;;;;;;;;;;;;;;5081492;28;4470;-64
2023/04/12 12:10:12;;;;;;;;;;;;;;;;;;5055096;28;3145;-67
2023/04/12 12:12:38;;;;;;;;;;;;;;;;;;5050902;28;4626;-66
2023/04/12 12:15:04;;;;;;;;;;;;;;;;;;5051538;28;4721;-63
2023/04/12 12:17:29;;;;;;;;;;;;;;;;;;5042088;28;5201;-66
2023/04/12 12:19:55;;;;;;;;;;;;;;;;;;5081277;28;5143;-65
2023/04/12 12:22:21;;;;;;;;;;;;;;;;;;5062292;28;3129;-70
2023/04/12 12:25:00;;;;;;;;;;;;;;;;;;5056961;28;4744;-66
2023/04/12 12:27:37;;;;;;;;;;;;;;;;;;5048489;28;5062;-65
2023/04/12 12:30:05;;;;;;;;;;;;;;;;;;5050782;28;4726;-66
2023/04/12 12:32:32;;;;;;;;;;;;;;;;;;5049728;28;4798;-68
2023/04/12 12:34:58;;;;;;;;;;;;;;;;;;5057655;28;4831;-66
2023/04/12 12:37:24;;;;;;;;;;;;;;;;;;5058195;28;1300;-63
2023/04/12 12:40:15;;;;;;;;;;;;;;;;;;5047744;28;5067;-66
2023/04/12 12:42:48;;;;;;;;;;;;;;;;;;5058520;28;5051;-66
2023/04/12 12:45:14;;;;;;;;;;;;;;;;;;5046007;28;4643;-64
2023/04/12 12:47:53;;;;;;;;;;;;;;;;;;5052762;28;4607;-64
2023/04/12 12:50:21;;;;;;;;;;;;;;;;;;5066555;28;4545;-66
2023/04/12 12:52:47;;;;;;;;;;;;;;;;;;5055313;28;4624;-65
2023/04/12 12:55:12;;;;;;;;;;;;;;;;;;5056616;28;1316;-65
2023/04/12 12:57:38;;;;;;;;;;;;;;;;;;5059938;28;4637;-63
2023/04/12 13:00:04;;;;;;;;;;;;;;;;;;5054666;28;4543;-65
2023/04/12 13:02:30;;;;;;;;;;;;;;;;;;5057250;28;4664;-69
2023/04/12 13:04:56;;;;;;;;;;;;;;;;;;5056347;28;4530;-69
2023/04/12 13:07:21;;;;;;;;;;;;;;;;;;5070264;28;3480;-74
2023/04/12 13:09:46;;;;;;;;;;;;;;;;;;5060745;28;4448;-70
2023/04/12 13:12:14;;;;;;;;;;;;;;;;;;5049360;28;4969;-72
2023/04/12 13:14:40;;;;;;;;;;;;;;;;;;5050904;28;4432;-74
2023/04/12 13:17:05;;;;;;;;;;;;;;;;;;5059801;28;4664;-70
2023/04/12 13:19:31;;;;;;;;;;;;;;;;;;5038574;28;4683;-69
2023/04/12 13:21:56;;;;;;;;;;;;;;;;;;5047823;28;3240;-62
2023/04/12 13:24:21;;;;;;;;;;;;;;;;;;5047251;28;5213;-65
2023/04/12 13:26:46;;;;;;;;;;;;;;;;;;5048976;28;4482;-69
2023/04/12 13:29:12;;;;;;;;;;;;;;;;;;5055114;28;5019;-66
2023/04/12 13:31:37;;;;;;;;;;;;;;;;;;5053512;28;4568;-64
2023/04/12 13:34:04;;;;;;;;;;;;;;;;;;5050634;28;3391;-66
2023/04/12 13:36:29;;;;;;;;;;;;;;;;;;5084467;28;4766;-65
2023/04/12 13:38:55;;;;;;;;;;;;;;;;;;5053930;28;4752;-68
2023/04/12 13:41:22;;;;;;;;;;;;;;;;;;5053622;28;4852;-70
2023/04/12 13:43:47;;;;;;;;;;;;;;;;;;5042493;28;5039;-66
2023/04/12 13:46:13;;;;;;;;;;;;;;;;;;5054243;28;3639;-67
2023/04/12 13:48:39;;;;;;;;;;;;;;;;;;5046288;28;5077;-70
2023/04/12 13:51:04;;;;;;;;;;;;;;;;;;5048907;28;4491;-66
2023/04/12 13:53:30;;;;;;;;;;;;;;;;;;5047545;28;5094;-61
2023/04/12 13:55:55;;;;;;;;;;;;;;;;;;5041973;28;5118;-64
2023/04/12 13:58:20;;;;;;;;;;;;;;;;;;5044822;28;3389;-62
2023/04/12 14:00:45;;;;;;;;;;;;;;;;;;5045143;28;4553;-62
2023/04/12 14:03:11;;;;;;;;;;;;;;;;;;5043458;28;4892;-62
2023/04/12 14:05:36;;;;;;;;;;;;;;;;;;5049044;28;4624;-61
2023/04/12 14:08:01;;;;;;;;;;;;;;;;;;5049769;28;4973;-60
2023/04/12 14:10:27;;;;;;;;;;;;;;;;;;5056081;28;4481;-60
2023/04/12 14:12:52;;;;;;;;;;;;;;;;;;5047323;28;1352;-65
2023/04/12 14:15:18;;;;;;;;;;;;;;;;;;5054642;28;4753;-60
2023/04/12 14:17:43;;;;;;;;;;;;;;;;;;5050645;28;4984;-60
2023/04/12 14:20:11;;;;;;;;;;;;;;;;;;5054939;28;4451;-65
2023/04/12 14:22:36;;;;;;;;;;;;;;;;;;5056993;28;4959;-60
2023/04/12 14:25:02;;;;;;;;;;;;;;;;;;5048721;28;4841;-61
2023/04/12 14:27:27;;;;;;;;;;;;;;;;;;5051230;28;4859;-60
2023/04/12 14:29:52;;;;;;;;;;;;;;;;;;5053523;28;5154;-59
2023/04/12 14:32:18;;;;;;;;;;;;;;;;;;5059324;28;4511;-61
2023/04/12 14:34:43;;;;;;;;;;;;;;;;;;5057670;28;4500;-59
2023/04/12 14:37:09;;;;;;;;;;;;;;;;;;5060367;28;1107;-60
2023/04/12 14:39:34;;;;;;;;;;;;;;;;;;5057844;28;5089;-64
2023/04/12 14:42:00;;;;;;;;;;;;;;;;;;5063799;28;5063;-64
2023/04/12 14:44:26;;;;;;;;;;;;;;;;;;5057134;28;4620;-62
2023/04/12 14:46:51;;;;;;;;;;;;;;;;;;5048453;28;4525;-62
2023/04/12 14:49:17;;;;;;;;;;;;;;;;;;5051157;28;3275;-65
2023/04/12 14:51:42;;;;;;;;;;;;;;;;;;5049205;28;4963;-64
2023/04/12 14:54:07;;;;;;;;;;;;;;;;;;5051546;28;4610;-64
2023/04/12 14:56:33;;;;;;;;;;;;;;;;;;5062008;28;4445;-64
2023/04/12 14:58:58;;;;;;;;;;;;;;;;;;5054211;28;4966;-64
2023/04/12 15:01:23;;;;;;;;;;;;;;;;;;5054606;28;1194;-64
2023/04/12 15:03:49;;;;;;;;;;;;;;;;;;5037906;28;4900;-64
2023/04/12 15:06:15;;;;;;;;;;;;;;;;;;5043558;28;5128;-64
2023/04/12 15:08:40;;;;;;;;;;;;;;;;;;5045872;28;4745;-63
2023/04/12 15:11:09;;;;;;;;;;;;;;;;;;5046652;28;4726;-64
2023/04/12 15:13:35;;;;;;;;;;;;;;;;;;5034319;28;4511;-64
2023/04/12 15:16:00;;;;;;;;;;;;;;;;;;5040981;28;3372;-64
2023/04/12 15:18:25;;;;;;;;;;;;;;;;;;5045065;28;4672;-62
2023/04/12 15:20:51;;;;;;;;;;;;;;;;;;5044266;28;4457;-63
2023/04/12 15:23:16;;;;;;;;;;;;;;;;;;5042734;28;4697;-62
2023/04/12 15:25:41;;;;;;;;;;;;;;;;;;5045822;28;4752;-64
2023/04/12 15:28:06;;;;;;;;;;;;;;;;;;5042121;28;3294;-59
2023/04/12 15:30:32;;;;;;;;;;;;;;;;;;5073923;28;5076;-59
2023/04/12 15:32:57;;;;;;;;;;;;;;;;;;5053109;28;4474;-61
2023/04/12 15:35:23;;;;;;;;;;;;;;;;;;5044748;28;4866;-60
2023/04/12 15:37:48;;;;;;;;;;;;;;;;;;5057035;28;5178;-62
2023/04/12 15:40:14;;;;;;;;;;;;;;;;;;5048912;28;3098;-62
2023/04/12 15:42:41;;;;;;;;;;;;;;;;;;5046487;28;5227;-62
2023/04/12 15:45:06;;;;;;;;;;;;;;;;;;5048182;28;5102;-63
2023/04/12 15:47:32;;;;;;;;;;;;;;;;;;5051405;28;5184;-59
2023/04/12 15:49:57;;;;;;;;;;;;;;;;;;5051792;28;5193;-60
2023/04/12 15:52:22;;;;;;;;;;;;;;;;;;5060490;28;1096;-60
2023/04/12 15:54:47;;;;;;;;;;;;;;;;;;5058538;28;4454;-60
2023/04/12 15:57:14;;;;;;;;;;;;;;;;;;5053873;28;4459;-59
2023/04/12 15:59:40;;;;;;;;;;;;;;;;;;5056436;28;4433;-60
2023/04/12 16:02:08;;;;;;;;;;;;;;;;;;5062822;28;4971;-61
2023/04/12 16:04:33;;;;;;;;;;;;;;;;;;5057981;28;4506;-60
2023/04/12 16:07:01;;;;;;;;;;;;;;;;;;5053219;28;1930;-61
2023/04/12 16:09:33;;;;;;;;;;;;;;;;;;5052445;28;5019;-61
2023/04/12 16:11:59;;;;;;;;;;;;;;;;;;5047510;28;5153;-67
2023/04/12 16:14:24;;;;;;;;;;;;;;;;;;5036642;28;4516;-64
2023/04/12 16:16:49;;;;;;;;;;;;;;;;;;5051318;28;4812;-61
2023/04/12 16:19:15;;;;;;;;;;;;;;;;;;5053478;28;3411;-62
2023/04/12 16:21:44;;;;;;;;;;;;;;;;;;5050473;28;4557;-60
2023/04/12 16:24:12;;;;;;;;;;;;;;;;;;5044291;28;4756;-64
2023/04/12 16:26:37;;;;;;;;;;;;;;;;;;5046412;28;5141;-61
2023/04/12 16:29:03;;;;;;;;;;;;;;;;;;5047572;28;4445;-60
2023/04/12 16:31:29;;;;;;;;;;;;;;;;;;5073918;28;4493;-69
2023/04/12 16:33:55;;;;;;;;;;;;;;;;;;5042469;28;3358;-66
2023/04/12 16:36:25;;;;;;;;;;;;;;;;;;5050987;28;4459;-62
2023/04/12 16:38:53;;;;;;;;;;;;;;;;;;5049637;28;5023;-62
2023/04/12 16:41:19;;;;;;;;;;;;;;;;;;5045012;28;4511;-62
2023/04/12 16:43:45;;;;;;;;;;;;;;;;;;5049059;28;4525;-60
2023/04/12 16:46:11;;;;;;;;;;;;;;;;;;5043998;28;4545;-60
2023/04/12 16:48:37;;;;;;;;;;;;;;;;;;5040914;28;4439;-60
2023/04/12 16:51:03;;;;;;;;;;;;;;;;;;5058138;28;5322;-61
2023/04/12 16:53:29;;;;;;;;;;;;;;;;;;5047501;28;5082;-60
2023/04/12 16:55:54;;;;;;;;;;;;;;;;;;5045626;28;4699;-62
2023/04/12 16:58:19;;;;;;;;;;;;;;;;;;5052728;28;3301;-62